PWSweather.com
Personal Weather Stations
Station Observations
NEWFAL01
Newton Falls, OH 44444

Newton Falls, OH 44444

Lat: 41.19902, Lon: -80.97668

Elevation: 920

Station Type: Vantage Pro 2

http://www.mvweathercenter.com

Latest ConditionsUpdated 2:35:01 AM EDT Friday, May 24, 2019
Currently Today's Max Today's Min Today's Average
Temperature 57.8°F14.3°C 64.6°F18.1°C 57.8°F14.3°C 61.0°F16.1°C
Dew Point 48.5°F9.2°C 51.0°F10.6°C 48.1°F8.9°C 49.1°F9.5°C
Winds Calm Calm Calm -Calm - - Calm Calm
Wind Gusts -- -- - -
Humidity 71% 71% 58% 65%
Pressure 30.01 in1016.3 mb 30.01 in1016.3 mb 29.99 in1015.6 mb -
Hour Temp Dew Point Humidity Winds Wind Gusts Pressure Precip Precip Rate Daily Precip Total
02:35 AM 57.8°F14.3°C 48.5°F9.2°C 71% Calm Calm -- 30.01 in1016.3 mb - 0.00 in0.0 mm 0.00 in0.0 mm
02:30 AM 58.0°F14.4°C 48.6°F9.2°C 71% Calm Calm -- 30.01 in1016.3 mb - 0.00 in0.0 mm 0.00 in0.0 mm
02:25 AM 58.2°F14.6°C 48.5°F9.2°C 70% Calm Calm -- 30.01 in1016.3 mb - 0.00 in0.0 mm 0.00 in0.0 mm
02:20 AM 58.5°F14.7°C 48.7°F9.3°C 70% Calm Calm -- 30.01 in1016.3 mb - 0.00 in0.0 mm 0.00 in0.0 mm
02:15 AM 58.7°F14.8°C 48.6°F9.2°C 69% Calm Calm -- 30.01 in1016.3 mb - 0.00 in0.0 mm 0.00 in0.0 mm
02:10 AM 59.0°F15.0°C 48.4°F9.1°C 68% Calm Calm -- 30.01 in1016.3 mb - 0.00 in0.0 mm 0.00 in0.0 mm
02:00 AM 59.0°F15.0°C 48.5°F9.2°C 68% Calm Calm -- 30.01 in1016.3 mb - 0.00 in0.0 mm 0.00 in0.0 mm
01:55 AM 59.4°F15.2°C 48.4°F9.1°C 67% Calm Calm -- 30.01 in1016.3 mb - 0.00 in0.0 mm 0.00 in0.0 mm
01:50 AM 59.6°F15.3°C 48.6°F9.2°C 67% Calm Calm -- 30.00 in1015.9 mb - 0.00 in0.0 mm 0.00 in0.0 mm
01:45 AM 59.8°F15.4°C 48.8°F9.3°C 67% Calm Calm -- 30.00 in1015.9 mb - 0.00 in0.0 mm 0.00 in0.0 mm
01:40 AM 60.0°F15.6°C 48.6°F9.2°C 66% Calm Calm -- 30.00 in1015.9 mb - 0.00 in0.0 mm 0.00 in0.0 mm
01:35 AM 60.3°F15.7°C 48.9°F9.4°C 66% Calm Calm -- 30.00 in1015.9 mb - 0.00 in0.0 mm 0.00 in0.0 mm
01:30 AM 60.5°F15.8°C 49.5°F9.7°C 67% Calm Calm -- 30.00 in1015.9 mb - 0.00 in0.0 mm 0.00 in0.0 mm
01:25 AM 60.7°F15.9°C 48.9°F9.4°C 65% Calm Calm -- 30.00 in1015.9 mb - 0.00 in0.0 mm 0.00 in0.0 mm
01:20 AM 60.8°F16.0°C 48.5°F9.2°C 64% Calm Calm -- 30.00 in1015.9 mb - 0.00 in0.0 mm 0.00 in0.0 mm
01:15 AM 61.0°F16.1°C 48.3°F9.1°C 63% Calm Calm -- 30.00 in1015.9 mb - 0.00 in0.0 mm 0.00 in0.0 mm
01:10 AM 61.3°F16.3°C 48.1°F8.9°C 62% Calm Calm -- 30.00 in1015.9 mb - 0.00 in0.0 mm 0.00 in0.0 mm
01:00 AM 61.6°F16.4°C 48.9°F9.4°C 63% Calm Calm -- 30.01 in1016.3 mb - 0.00 in0.0 mm 0.00 in0.0 mm
12:55 AM 61.8°F16.6°C 49.0°F9.4°C 63% Calm Calm -- 30.00 in1015.9 mb - 0.00 in0.0 mm 0.00 in0.0 mm
12:50 AM 61.9°F16.6°C 48.7°F9.3°C 62% Calm Calm -- 30.00 in1015.9 mb - 0.00 in0.0 mm 0.00 in0.0 mm
12:45 AM 62.2°F16.8°C 49.4°F9.7°C 63% Calm Calm -- 30.00 in1015.9 mb - 0.00 in0.0 mm 0.00 in0.0 mm
12:40 AM 62.5°F16.9°C 49.7°F9.8°C 63% Calm Calm -- 30.00 in1015.9 mb - 0.00 in0.0 mm 0.00 in0.0 mm
12:35 AM 62.8°F17.1°C 50.9°F10.5°C 65% Calm Calm -- 29.99 in1015.6 mb - 0.00 in0.0 mm 0.00 in0.0 mm
12:30 AM 63.1°F17.3°C 50.3°F10.2°C 63% Calm Calm -- 29.99 in1015.6 mb - 0.00 in0.0 mm 0.00 in0.0 mm
12:25 AM 63.4°F17.4°C 51.0°F10.6°C 64% Calm Calm -- 29.99 in1015.6 mb - 0.00 in0.0 mm 0.00 in0.0 mm
12:20 AM 63.6°F17.6°C 50.3°F10.2°C 62% Calm Calm -- 29.99 in1015.6 mb - 0.00 in0.0 mm 0.00 in0.0 mm
12:15 AM 63.9°F17.7°C 48.8°F9.3°C 58% Calm Calm -- 29.99 in1015.6 mb - 0.00 in0.0 mm 0.00 in0.0 mm
12:10 AM 64.1°F17.8°C 49.5°F9.7°C 59% Calm Calm -- 29.99 in1015.6 mb - 0.00 in0.0 mm 0.00 in0.0 mm
12:00 AM 64.6°F18.1°C 49.9°F9.9°C 59% Calm Calm -- 29.99 in1015.6 mb - 0.00 in0.0 mm 0.00 in0.0 mm